地図

経路データ

SID SEASON NUMBER BASIN SUBBASIN NAME ISO_TIME NATURE LAT LON WMO_WIND WMO_PRES WMO_AGENCY TRACK_TYPE DIST2LAND LANDFALL IFLAG USA_AGENCY USA_ATCF_ID USA_LAT USA_LON USA_RECORD USA_STATUS USA_WIND USA_PRES USA_SSHS USA_R34_NE USA_R34_SE USA_R34_SW USA_R34_NW USA_R50_NE USA_R50_SE USA_R50_SW USA_R50_NW USA_R64_NE USA_R64_SE USA_R64_SW USA_R64_NW USA_POCI USA_ROCI USA_RMW USA_EYE TOKYO_LAT TOKYO_LON TOKYO_GRADE TOKYO_WIND TOKYO_PRES TOKYO_R50_DIR TOKYO_R50_LONG TOKYO_R50_SHORT TOKYO_R30_DIR TOKYO_R30_LONG TOKYO_R30_SHORT TOKYO_LAND CMA_LAT CMA_LON CMA_CAT CMA_WIND CMA_PRES HKO_LAT HKO_LON HKO_CAT HKO_WIND HKO_PRES NEWDELHI_LAT NEWDELHI_LON NEWDELHI_GRADE NEWDELHI_WIND NEWDELHI_PRES NEWDELHI_CI NEWDELHI_DP NEWDELHI_POCI REUNION_LAT REUNION_LON REUNION_TYPE REUNION_WIND REUNION_PRES REUNION_TNUM REUNION_CI REUNION_RMW REUNION_R34_NE REUNION_R34_SE REUNION_R34_SW REUNION_R34_NW REUNION_R50_NE REUNION_R50_SE REUNION_R50_SW REUNION_R50_NW REUNION_R64_NE REUNION_R64_SE REUNION_R64_SW REUNION_R64_NW BOM_LAT BOM_LON BOM_TYPE BOM_WIND BOM_PRES BOM_TNUM BOM_CI BOM_RMW BOM_R34_NE BOM_R34_SE BOM_R34_SW BOM_R34_NW BOM_R50_NE BOM_R50_SE BOM_R50_SW BOM_R50_NW BOM_R64_NE BOM_R64_SE BOM_R64_SW BOM_R64_NW BOM_ROCI BOM_POCI BOM_EYE BOM_POS_METHOD BOM_PRES_METHOD NADI_LAT NADI_LON NADI_CAT NADI_WIND NADI_PRES WELLINGTON_LAT WELLINGTON_LON WELLINGTON_WIND WELLINGTON_PRES DS824_LAT DS824_LON DS824_STAGE DS824_WIND DS824_PRES TD9636_LAT TD9636_LON TD9636_STAGE TD9636_WIND TD9636_PRES TD9635_LAT TD9635_LON TD9635_WIND TD9635_PRES TD9635_ROCI NEUMANN_LAT NEUMANN_LON NEUMANN_CLASS NEUMANN_WIND NEUMANN_PRES MLC_LAT MLC_LON MLC_CLASS MLC_WIND MLC_PRES USA_GUST BOM_GUST BOM_GUST_PER REUNION_GUST REUNION_GUST_PER USA_SEAHGT USA_SEARAD_NE USA_SEARAD_SE USA_SEARAD_SW USA_SEARAD_NW STORM_SPEED STORM_DIR
1938011S16064 1938 7 SI MM NOT_NAMED 1938-01-11 00:00:00 TS -16.3000 64.0000 main 789 765 _________O____ -1 -16.3000 64.0000 TC 25 5 257
1938011S16064 1938 7 SI MM NOT_NAMED 1938-01-11 03:00:00 TS -16.3551 63.7501 main 765 739 _________P____ -1 -16.3551 63.7501 TC 25 5 258
1938011S16064 1938 7 SI MM NOT_NAMED 1938-01-11 06:00:00 TS -16.4000 63.5000 main 739 721 _________O____ -1 -16.4000 63.5000 TC 25 5 261
1938011S16064 1938 7 SI MM NOT_NAMED 1938-01-11 09:00:00 TS -16.4350 63.2499 main 713 689 _________P____ -1 -16.4350 63.2499 TC 25 5 258
1938011S16064 1938 7 SI MM NOT_NAMED 1938-01-11 12:00:00 TS -16.5000 63.0000 main 689 665 _________O____ -1 -16.5000 63.0000 TC 25 5 246
1938011S16064 1938 7 SI MM NOT_NAMED 1938-01-11 15:00:00 TS -16.6424 62.7575 main 665 626 _________P____ -1 -16.6424 62.7575 TC 25 6 238
1938011S16064 1938 7 SI MM NOT_NAMED 1938-01-11 18:00:00 TS -16.8000 62.5000 main 626 594 _________O____ -1 -16.8000 62.5000 TC 25 6 243
1938011S16064 1938 7 SI MM NOT_NAMED 1938-01-11 21:00:00 TS -16.9150 62.2000 main 594 562 _________P____ -1 -16.9150 62.2000 TC 25 6 251
1938011S16064 1938 7 SI MM NOT_NAMED 1938-01-12 00:00:00 TS -17.0000 61.9000 main 562 537 _________O____ -1 -17.0000 61.9000 TC 25 6 256
1938011S16064 1938 7 SI MM NOT_NAMED 1938-01-12 03:00:00 TS -17.0500 61.6349 main 537 514 _________P____ -1 -17.0500 61.6349 TC 25 5 258
1938011S16064 1938 7 SI MM NOT_NAMED 1938-01-12 06:00:00 TS -17.1000 61.4000 main 514 491 _________O____ -1 -17.1000 61.4000 TC 25 4 251
1938011S16064 1938 7 SI MM NOT_NAMED 1938-01-12 09:00:00 TS -17.1924 61.2075 main 491 467 _________P____ -1 -17.1924 61.2075 TC 25 4 242
1938011S16064 1938 7 SI MM NOT_NAMED 1938-01-12 12:00:00 TS -17.3000 61.0000 main 467 437 _________O____ -1 -17.3000 61.0000 TC 25 5 247
1938011S16064 1938 7 SI MM NOT_NAMED 1938-01-12 15:00:00 TS -17.3925 60.7150 main 437 406 _________P____ -1 -17.3925 60.7150 TC 25 6 251
1938011S16064 1938 7 SI MM NOT_NAMED 1938-01-12 18:00:00 TS -17.5000 60.4000 main 406 376 _________O____ -1 -17.5000 60.4000 TC 25 6 247
1938011S16064 1938 7 SI MM NOT_NAMED 1938-01-12 21:00:00 TS -17.6500 60.0925 main 376 339 _________P____ -1 -17.6500 60.0925 TC 25 6 242
1938011S16064 1938 7 SI MM NOT_NAMED 1938-01-13 00:00:00 TS -17.8000 59.8000 main 339 310 _________O____ -1 -17.8000 59.8000 TC 25 6 244
1938011S16064 1938 7 SI MM NOT_NAMED 1938-01-13 03:00:00 TS -17.9075 59.5349 main 310 288 _________P____ -1 -17.9075 59.5349 TC 25 5 247
1938011S16064 1938 7 SI MM NOT_NAMED 1938-01-13 06:00:00 TS -18.0000 59.3000 main 288 267 _________O____ -1 -18.0000 59.3000 TC 25 5 245
1938011S16064 1938 7 SI MM NOT_NAMED 1938-01-13 09:00:00 TS -18.0999 59.1074 main 267 247 _________P____ -1 -18.0999 59.1074 TC 25 4 242
1938011S16064 1938 7 SI MM NOT_NAMED 1938-01-13 12:00:00 TS -18.2000 58.9000 main 247 222 _________O____ -1 -18.2000 58.9000 TC 25 5 248
1938011S16064 1938 7 SI MM NOT_NAMED 1938-01-13 15:00:00 TS -18.2925 58.6075 main 222 200 _________P____ -1 -18.2925 58.6075 TC 25 6 251
1938011S16064 1938 7 SI MM NOT_NAMED 1938-01-13 18:00:00 TS -18.4000 58.3000 main 200 183 _________O____ -1 -18.4000 58.3000 TC 25 6 244
1938011S16064 1938 7 SI MM NOT_NAMED 1938-01-13 21:00:00 TS -18.5499 58.0425 main 181 156 _________P____ -1 -18.5499 58.0425 TC 25 6 238
1938011S16064 1938 7 SI MM NOT_NAMED 1938-01-14 00:00:00 TS -18.7000 57.8000 main 156 145 _________O____ -1 -18.7000 57.8000 TC 25 5 241
1938011S16064 1938 7 SI MM NOT_NAMED 1938-01-14 03:00:00 TS -18.8075 57.5499 main 145 134 _________P____ -1 -18.8075 57.5499 TC 25 5 247
1938011S16064 1938 7 SI MM NOT_NAMED 1938-01-14 06:00:00 TS -18.9000 57.3000 main 135 126 _________O____ -1 -18.9000 57.3000 TC 25 5 248
1938011S16064 1938 7 SI MM NOT_NAMED 1938-01-14 09:00:00 TS -19.0000 57.0425 main 133 128 _________P____ -1 -19.0000 57.0425 TC 25 5 247
1938011S16064 1938 7 SI MM NOT_NAMED 1938-01-14 12:00:00 TS -19.1000 56.8000 main 133 130 _________O____ -1 -19.1000 56.8000 TC 25 5 246
1938011S16064 1938 7 SI MM NOT_NAMED 1938-01-14 15:00:00 TS -19.1925 56.5924 main 137 137 _________P____ -1 -19.1925 56.5924 TC 25 4 242
1938011S16064 1938 7 SI MM NOT_NAMED 1938-01-14 18:00:00 TS -19.3000 56.4000 main 145 145 _________O____ -1 -19.3000 56.4000 TC 25 5 235
1938011S16064 1938 7 SI MM NOT_NAMED 1938-01-14 21:00:00 TS -19.4500 56.2000 main 156 151 _________P____ -1 -19.4500 56.2000 TC 25 5 231
1938011S16064 1938 7 SI MM NOT_NAMED 1938-01-15 00:00:00 TS -19.6000 56.0000 main 159 145 _________O____ -1 -19.6000 56.0000 TC 25 5 236
1938011S16064 1938 7 SI MM NOT_NAMED 1938-01-15 03:00:00 TS -19.7075 55.7999 main 145 134 _________P____ -1 -19.7075 55.7999 TC 25 4 242
1938011S16064 1938 7 SI MM NOT_NAMED 1938-01-15 06:00:00 TS -19.8000 55.6000 main 134 123 _________O____ -1 -19.8000 55.6000 TC 25 4 243
1938011S16064 1938 7 SI MM NOT_NAMED 1938-01-15 09:00:00 TS -19.9000 55.4000 main 123 111 _________P____ -1 -19.9000 55.4000 TC 25 4 242
1938011S16064 1938 7 SI MM NOT_NAMED 1938-01-15 12:00:00 TS -20.0000 55.2000 main 112 102 _________O____ -1 -20.0000 55.2000 TC 25 4 243
1938011S16064 1938 7 SI MM NOT_NAMED 1938-01-15 15:00:00 TS -20.0925 54.9925 main 105 98 _________P____ -1 -20.0925 54.9925 TC 25 4 242
1938011S16064 1938 7 SI MM NOT_NAMED 1938-01-15 18:00:00 TS -20.2000 54.8000 main 103 100 _________O____ -1 -20.2000 54.8000 TC 25 4 233
1938011S16064 1938 7 SI MM NOT_NAMED 1938-01-15 21:00:00 TS -20.3400 54.6401 main 106 98 _________P____ -1 -20.3400 54.6401 TC 25 4 223
1938011S16064 1938 7 SI MM NOT_NAMED 1938-01-16 00:00:00 TS -20.5000 54.5000 main 98 _________O____ -1 -20.5000 54.5000 TC 25 4 219

IBTrACS Databaseについて

本データベースは、米国NOAAが公開する1842年以降の世界の熱帯低気圧のベストトラックデータアーカイブInternational Best Track Archive for Climate Stewardship (IBTrACS)を、ウェブで閲覧しやすい形式に変換したものです。

最終更新日:2021-10-27